Time;durP1;ratioP1;P1;durP2;ratioP2;P2;SDS_P1;SDS_P2;PMS_P1;PMS_P2;Temp;Humidity;BMP_temperature;BMP_pressure;BME280_temperature;BME280_humidity;BME280_pressure;Samples;Min_cycle;Max_cycle;Signal;HPM_P1;HPM_P2
2022/10/22 00:01:23;;;;;;;0.40;0.30;;;;;;;10.96;87.27;96261.91;5132507;27;20770;-55
2022/10/22 00:03:51;;;;;;;0.57;0.57;;;;;;;10.66;93.02;96277.44;5132420;27;20432;-55
2022/10/22 00:06:20;;;;;;;0.57;0.37;;;;;;;10.57;95.59;96271.78;5130894;27;20442;-55
2022/10/22 00:08:49;;;;;;;0.40;0.40;;;;;;;10.65;93.70;96273.22;5133206;27;20437;-55
2022/10/22 00:11:19;;;;;;;0.40;0.30;;;;;;;10.53;93.27;96270.66;5135912;27;20421;-55
2022/10/22 00:13:48;;;;;;;0.50;0.50;;;;;;;10.42;96.98;96265.47;5135012;27;20434;-55
2022/10/22 00:16:16;;;;;;;0.60;0.60;;;;;;;10.26;100.00;96258.38;5136239;27;20430;-55
2022/10/22 00:18:44;;;;;;;2.50;1.67;;;;;;;10.28;100.00;96257.06;5135688;27;20429;-55
2022/10/22 00:21:13;;;;;;;0.70;0.50;;;;;;;10.55;95.92;96265.13;5135253;27;20882;-57
2022/10/22 00:23:42;;;;;;;0.57;0.57;;;;;;;10.61;91.17;96272.09;5135949;27;20429;-55
2022/10/22 00:26:12;;;;;;;9.73;0.93;;;;;;;10.55;90.06;96260.63;5135591;27;20483;-55
2022/10/22 00:28:40;;;;;;;0.67;0.67;;;;;;;10.71;86.87;96270.38;5135476;27;20426;-55
2022/10/22 00:31:09;;;;;;;0.50;0.40;;;;;;;10.62;85.47;96273.69;5135547;27;20466;-55
2022/10/22 00:33:37;;;;;;;0.63;0.63;;;;;;;10.61;87.36;96272.09;5135005;27;20429;-55
2022/10/22 00:36:06;;;;;;;0.90;0.60;;;;;;;10.34;93.01;96268.56;5135723;27;20434;-55
2022/10/22 00:38:34;;;;;;;1.70;1.00;;;;;;;9.98;98.84;96275.13;5135743;27;20436;-55
2022/10/22 00:41:03;;;;;;;0.60;0.60;;;;;;;9.86;100.00;96267.28;5135575;27;20468;-55
2022/10/22 00:43:33;;;;;;;1.20;0.60;;;;;;;9.71;100.00;96256.47;5135480;27;21006;-55
2022/10/22 00:46:01;;;;;;;2.90;2.60;;;;;;;9.68;100.00;96256.94;5135422;27;20436;-55
2022/10/22 00:48:33;;;;;;;1.30;0.40;;;;;;;9.92;100.00;96266.31;5134708;27;20980;-55
2022/10/22 00:51:04;;;;;;;0.60;0.40;;;;;;;10.06;96.36;96259.66;5133991;27;20849;-55
2022/10/22 00:53:36;;;;;;;1.33;0.97;;;;;;;9.68;94.52;96245.53;5135205;27;20427;-55
2022/10/22 00:56:06;;;;;;;0.50;0.40;;;;;;;10.03;91.77;96257.50;5135097;27;20925;-55
2022/10/22 00:58:40;;;;;;;0.50;0.50;;;;;;;10.12;89.59;96256.03;5135416;27;20433;-55
2022/10/22 01:01:12;;;;;;;0.40;0.30;;;;;;;10.33;87.11;96248.38;5134875;27;20432;-55
2022/10/22 01:03:41;;;;;;;1.40;1.30;;;;;;;9.53;90.58;96257.50;5133877;27;20431;-55
2022/10/22 01:06:15;;;;;;;0.73;0.73;;;;;;;9.71;95.05;96251.16;5134855;27;20463;-55
2022/10/22 01:08:49;;;;;;;0.83;0.40;;;;;;;10.14;87.73;96253.94;5134863;27;20433;-55
2022/10/22 01:11:27;;;;;;;0.40;0.40;;;;;;;10.21;86.36;96256.44;5134925;27;20889;-55
2022/10/22 01:14:04;;;;;;;0.47;0.47;;;;;;;9.67;88.96;96250.03;5135059;27;20425;-54
2022/10/22 01:16:37;;;;;;;2.20;0.60;;;;;;;9.68;90.37;96235.75;5134538;27;20433;-54
2022/10/22 01:19:26;;;;;;;2.00;0.40;;;;;;;9.45;88.88;96173.22;5134636;27;20421;-55
2022/10/22 01:22:00;;;;;;;0.83;0.83;;;;;;;10.20;86.34;96265.44;5134624;27;20429;-55
2022/10/22 01:24:41;;;;;;;0.83;0.57;;;;;;;10.20;86.15;96260.94;5134721;27;20990;-54
2022/10/22 01:27:20;;;;;;;0.40;0.30;;;;;;;10.14;85.16;96261.13;5134329;27;20422;-54
2022/10/22 01:29:53;;;;;;;0.53;0.53;;;;;;;10.33;82.75;96259.78;5134672;27;20477;-55
2022/10/22 01:32:25;;;;;;;0.80;0.47;;;;;;;10.14;83.68;96258.47;5134075;27;20452;-54
2022/10/22 01:35:00;;;;;;;0.40;0.33;;;;;;;9.23;91.99;96256.16;5133606;27;20436;-54
2022/10/22 01:37:32;;;;;;;0.50;0.50;;;;;;;9.66;90.80;96248.44;5134534;27;20433;-54
2022/10/22 01:40:02;;;;;;;0.40;0.20;;;;;;;9.94;87.21;96250.97;5134169;27;20435;-55
2022/10/22 01:42:30;;;;;;;0.40;0.30;;;;;;;9.82;87.54;96244.16;5133744;27;20445;-55
2022/10/22 01:45:00;;;;;;;1.30;1.30;;;;;;;10.08;85.22;96236.38;5133273;27;20425;-54
2022/10/22 01:47:40;;;;;;;2.07;0.83;;;;;;;10.06;83.71;96230.53;5133723;27;20423;-54
2022/10/22 01:50:41;;;;;;;1.10;1.07;;;;;;;9.92;85.22;96241.66;5133812;27;20589;-53
2022/10/22 01:53:21;;;;;;;0.47;0.30;;;;;;;9.52;91.20;96242.66;5133351;27;20503;-54
2022/10/22 01:56:04;;;;;;;0.40;0.30;;;;;;;9.89;87.09;96231.59;5133723;27;20475;-54
2022/10/22 01:58:42;;;;;;;0.40;0.20;;;;;;;9.68;87.01;96233.13;5133735;27;20418;-55
2022/10/22 02:01:22;;;;;;;2.30;0.60;;;;;;;9.98;85.09;96227.47;5133521;27;20449;-55
2022/10/22 02:03:57;;;;;;;0.60;0.53;;;;;;;10.03;84.84;96223.06;5133290;27;20437;-55
2022/10/22 02:06:27;;;;;;;0.40;0.33;;;;;;;9.89;85.71;96232.38;5132995;27;20433;-54
2022/10/22 02:08:57;;;;;;;0.40;0.30;;;;;;;9.84;86.65;96227.00;5132035;27;20430;-55
2022/10/22 02:11:26;;;;;;;0.50;0.30;;;;;;;9.90;85.27;96212.00;5132785;27;20534;-56
2022/10/22 02:13:58;;;;;;;0.97;0.37;;;;;;;9.96;84.92;96219.78;5132602;27;20422;-54
2022/10/22 02:16:32;;;;;;;0.40;0.30;;;;;;;9.95;84.29;96220.81;5133518;27;20479;-55
2022/10/22 02:19:06;;;;;;;1.40;1.37;;;;;;;9.97;84.36;96216.06;5133216;27;20919;-55
2022/10/22 02:21:34;;;;;;;0.70;0.40;;;;;;;9.79;84.66;96226.13;5133057;27;20434;-54
2022/10/22 02:24:02;;;;;;;0.50;0.50;;;;;;;9.94;84.69;96232.44;5132812;27;20426;-55
2022/10/22 02:26:37;;;;;;;0.40;0.30;;;;;;;10.07;84.87;96232.09;5133156;27;20437;-55
2022/10/22 02:29:13;;;;;;;0.80;0.80;;;;;;;9.76;85.61;96224.78;5133059;27;20422;-55
2022/10/22 02:31:47;;;;;;;2.33;0.90;;;;;;;9.45;88.55;96249.94;5132674;27;20480;-55
2022/10/22 02:34:22;;;;;;;3.17;0.67;;;;;;;9.62;89.08;96246.50;5133239;27;20425;-54
2022/10/22 02:36:52;;;;;;;0.80;0.80;;;;;;;9.75;86.74;96228.44;5133091;27;20433;-54
2022/10/22 02:39:21;;;;;;;0.80;0.40;;;;;;;9.98;84.46;96249.47;5133198;27;20426;-55
2022/10/22 02:41:49;;;;;;;0.50;0.50;;;;;;;9.83;84.68;96251.06;5132937;27;20433;-55
2022/10/22 02:44:21;;;;;;;0.60;0.40;;;;;;;9.91;83.65;96251.47;5133225;27;20440;-55
2022/10/22 02:46:51;;;;;;;1.00;0.90;;;;;;;9.70;84.37;96254.03;5132756;27;20430;-55
2022/10/22 02:49:19;;;;;;;1.47;1.47;;;;;;;9.90;83.24;96257.81;5133079;27;20425;-55
2022/10/22 02:51:48;;;;;;;0.50;0.50;;;;;;;9.95;82.36;96254.44;5132804;27;20477;-55
2022/10/22 02:54:17;;;;;;;0.40;0.30;;;;;;;9.89;82.00;96261.50;5132982;27;20901;-56
2022/10/22 02:56:45;;;;;;;0.67;0.67;;;;;;;9.91;81.55;96262.06;5132221;27;20454;-56
2022/10/22 02:59:13;;;;;;;0.80;0.77;;;;;;;9.60;82.96;96257.31;5132251;27;20890;-54
2022/10/22 03:01:42;;;;;;;0.40;0.30;;;;;;;9.56;83.96;96256.22;5132714;27;20424;-54
2022/10/22 03:04:12;;;;;;;1.20;1.20;;;;;;;9.78;82.95;96256.28;5132501;27;20441;-55
2022/10/22 03:06:42;;;;;;;0.53;0.53;;;;;;;9.81;82.32;96259.28;5132446;27;20435;-55
2022/10/22 03:09:11;;;;;;;0.80;0.80;;;;;;;9.53;82.97;96217.00;5131645;27;20429;-55
2022/10/22 03:11:40;;;;;;;15.23;0.57;;;;;;;9.99;81.43;96252.91;5132038;27;20488;-55
2022/10/22 03:14:08;;;;;;;0.60;0.50;;;;;;;10.10;80.47;96244.88;5131716;27;20438;-55
2022/10/22 03:16:36;;;;;;;0.40;0.40;;;;;;;10.20;79.67;96253.00;5132617;27;20418;-55
2022/10/22 03:19:04;;;;;;;0.43;0.30;;;;;;;10.12;79.62;96236.69;5132706;27;20440;-54
2022/10/22 03:21:39;;;;;;;0.93;0.90;;;;;;;10.24;78.31;96239.25;5131434;27;20442;-55
2022/10/22 03:24:13;;;;;;;0.97;0.97;;;;;;;9.88;79.39;96249.31;5132101;27;20430;-55
2022/10/22 03:26:43;;;;;;;0.70;0.70;;;;;;;9.93;80.44;96246.75;5131026;27;20445;-54
2022/10/22 03:29:14;;;;;;;1.07;1.07;;;;;;;9.83;79.80;96240.47;5131133;27;20426;-54
2022/10/22 03:31:42;;;;;;;0.60;0.60;;;;;;;9.01;84.56;96239.34;5132366;27;20528;-55
2022/10/22 03:34:12;;;;;;;1.93;1.83;;;;;;;8.38;92.47;96250.78;5132046;27;20434;-54
2022/10/22 03:36:42;;;;;;;11.90;2.30;;;;;;;7.88;99.92;96236.44;5132569;27;20854;-56
2022/10/22 03:39:12;;;;;;;0.83;0.73;;;;;;;7.78;98.53;96254.69;5131401;27;20429;-55
2022/10/22 03:41:41;;;;;;;2.40;2.30;;;;;;;7.39;100.00;96262.19;5131862;27;20742;-54
2022/10/22 03:44:10;;;;;;;1.30;0.73;;;;;;;7.07;100.00;96268.75;5133384;27;20831;-54
2022/10/22 03:46:38;;;;;;;1.37;1.27;;;;;;;8.14;100.00;96267.69;5136200;27;20437;-55
2022/10/22 03:49:07;;;;;;;1.60;0.60;;;;;;;8.76;93.85;96264.25;5136287;27;20439;-55
2022/10/22 03:51:35;;;;;;;0.60;0.50;;;;;;;8.92;90.75;96268.00;5135973;27;20466;-54
2022/10/22 03:54:05;;;;;;;1.03;0.97;;;;;;;8.52;94.44;96272.47;5135510;27;20440;-54
2022/10/22 03:56:34;;;;;;;0.80;0.80;;;;;;;8.53;93.01;96284.66;5136060;27;20422;-54
2022/10/22 03:59:02;;;;;;;0.70;0.47;;;;;;;9.07;90.00;96268.31;5135012;27;20433;-54
2022/10/22 04:01:31;;;;;;;2.50;0.73;;;;;;;9.51;86.37;96277.31;5135310;27;20440;-55
2022/10/22 04:04:00;;;;;;;0.40;0.40;;;;;;;8.87;89.20;96271.38;5135568;27;20432;-58
2022/10/22 04:06:30;;;;;;;0.40;0.30;;;;;;;8.56;92.53;96273.63;5135500;27;20433;-55
2022/10/22 04:08:59;;;;;;;0.60;0.50;;;;;;;8.86;90.75;96268.94;5135873;27;20739;-54
2022/10/22 04:11:29;;;;;;;0.40;0.30;;;;;;;9.15;87.99;96270.56;5135319;27;20469;-55
2022/10/22 04:13:58;;;;;;;0.53;0.30;;;;;;;9.29;88.82;96273.72;5135731;27;20927;-54
2022/10/22 04:16:29;;;;;;;0.40;0.30;;;;;;;9.37;87.21;96275.97;5134343;27;20422;-55
2022/10/22 04:18:58;;;;;;;0.73;0.73;;;;;;;8.87;86.68;96279.28;5134596;27;20429;-54
2022/10/22 04:21:27;;;;;;;0.40;0.30;;;;;;;8.56;90.29;96287.63;5135029;27;20810;-54
2022/10/22 04:23:55;;;;;;;0.63;0.57;;;;;;;8.70;87.59;96281.03;5135438;27;20782;-55
2022/10/22 04:26:23;;;;;;;0.40;0.30;;;;;;;9.00;86.65;96285.34;5135766;27;20456;-55
2022/10/22 04:28:53;;;;;;;0.83;0.83;;;;;;;9.17;88.61;96289.66;5135211;27;20434;-54
2022/10/22 04:31:24;;;;;;;0.60;0.40;;;;;;;9.38;84.44;96283.69;5135537;27;20421;-55
2022/10/22 04:33:54;;;;;;;0.40;0.30;;;;;;;9.18;81.92;96232.25;5135214;27;20456;-55
2022/10/22 04:36:24;;;;;;;0.90;0.50;;;;;;;9.55;82.71;96254.59;5135114;27;20444;-55
2022/10/22 04:38:54;;;;;;;0.40;0.30;;;;;;;9.55;83.01;96254.59;5135001;27;20426;-55
2022/10/22 04:41:24;;;;;;;0.53;0.53;;;;;;;9.26;81.34;96245.09;5133847;27;20442;-56
2022/10/22 04:43:55;;;;;;;0.40;0.30;;;;;;;9.56;84.00;96246.41;5135271;27;20442;-55
2022/10/22 04:46:25;;;;;;;0.47;0.43;;;;;;;9.72;81.02;96244.81;5135266;27;20526;-55
2022/10/22 04:48:53;;;;;;;0.60;0.60;;;;;;;9.03;85.13;96264.53;5135097;27;20516;-55
2022/10/22 04:51:24;;;;;;;0.93;0.60;;;;;;;9.48;85.19;96251.31;5135065;27;20482;-55
2022/10/22 04:53:52;;;;;;;0.70;0.70;;;;;;;9.82;83.97;96258.22;5134399;27;20429;-56
2022/10/22 04:56:23;;;;;;;3.50;0.90;;;;;;;9.84;79.81;96245.53;5134637;27;20748;-55
2022/10/22 04:58:56;;;;;;;0.77;0.77;;;;;;;9.61;79.22;96218.44;5134762;27;20426;-55
2022/10/22 05:01:27;;;;;;;1.33;1.33;;;;;;;10.08;77.91;96262.84;5134877;27;20422;-56
2022/10/22 05:03:57;;;;;;;0.70;0.50;;;;;;;9.65;80.33;96264.53;5134550;27;20436;-55
2022/10/22 05:06:27;;;;;;;1.40;0.70;;;;;;;9.15;83.71;96261.81;5134554;27;20783;-55
2022/10/22 05:08:57;;;;;;;2.47;2.23;;;;;;;8.42;89.18;96267.81;5134602;27;20507;-56
2022/10/22 05:11:28;;;;;;;0.70;0.70;;;;;;;8.17;95.82;96269.84;5134311;27;20448;-55
2022/10/22 05:13:59;;;;;;;1.60;1.50;;;;;;;7.64;94.53;96283.13;5133901;27;20430;-55
2022/10/22 05:16:29;;;;;;;3.30;3.10;;;;;;;6.91;99.15;96280.72;5134436;27;20431;-55
2022/10/22 05:18:59;;;;;;;1.10;1.10;;;;;;;6.76;100.00;96282.13;5133967;27;20429;-55
2022/10/22 05:21:27;;;;;;;0.80;0.80;;;;;;;6.52;100.00;96290.94;5134443;27;20456;-56
2022/10/22 05:23:58;;;;;;;0.40;0.40;;;;;;;6.37;100.00;96257.84;5133782;27;20426;-56
2022/10/22 05:26:28;;;;;;;0.70;0.70;;;;;;;6.56;100.00;96271.84;5134197;27;20442;-56
2022/10/22 05:28:58;;;;;;;0.90;0.60;;;;;;;6.73;100.00;96282.59;5133874;27;20448;-56
2022/10/22 05:31:27;;;;;;;0.67;0.63;;;;;;;6.74;100.00;96285.00;5133892;27;20500;-55
2022/10/22 05:33:56;;;;;;;0.63;0.63;;;;;;;7.46;99.56;96294.53;5134395;27;20843;-57
2022/10/22 05:36:24;;;;;;;0.50;0.40;;;;;;;7.41;98.71;96294.41;5134024;27;20458;-56
2022/10/22 05:38:53;;;;;;;0.83;0.83;;;;;;;7.28;99.77;96294.63;5134346;27;20603;-56
2022/10/22 05:41:23;;;;;;;4.73;0.63;;;;;;;7.58;98.91;96282.22;5134054;27;20418;-56
2022/10/22 05:43:54;;;;;;;1.37;1.27;;;;;;;7.53;99.31;96290.00;5133731;27;20449;-55
2022/10/22 05:46:25;;;;;;;0.40;0.30;;;;;;;8.12;93.14;96296.94;5134022;27;20430;-55
2022/10/22 05:48:56;;;;;;;0.50;0.30;;;;;;;8.26;91.76;96284.31;5133752;27;20440;-56
2022/10/22 05:51:25;;;;;;;0.50;0.50;;;;;;;7.76;91.68;96230.38;5133450;27;20421;-55
2022/10/22 05:53:55;;;;;;;0.80;0.77;;;;;;;8.04;92.48;96289.38;5133190;27;20994;-55
2022/10/22 05:56:24;;;;;;;1.63;1.07;;;;;;;8.36;91.49;96284.56;5133404;27;20783;-56
2022/10/22 05:58:53;;;;;;;1.30;1.27;;;;;;;7.91;88.44;96191.13;5133517;27;20440;-56
2022/10/22 06:01:26;;;;;;;1.27;0.70;;;;;;;8.25;91.95;96265.00;5133235;27;20426;-56
2022/10/22 06:03:55;;;;;;;1.40;1.23;;;;;;;7.58;96.23;96263.75;5132834;27;20971;-56
2022/10/22 06:06:34;;;;;;;1.43;1.37;;;;;;;7.81;98.37;96276.16;5132689;27;20426;-54
2022/10/22 06:09:05;;;;;;;0.87;0.87;;;;;;;8.06;95.17;96278.56;5133271;27;20425;-55
2022/10/22 06:11:33;;;;;;;0.60;0.53;;;;;;;8.84;90.47;96276.31;5133287;27;20438;-55
2022/10/22 06:14:03;;;;;;;0.60;0.60;;;;;;;8.98;88.41;96285.56;5133433;27;20529;-56
2022/10/22 06:16:32;;;;;;;1.43;1.33;;;;;;;9.32;87.74;96276.69;5133214;27;20925;-55
2022/10/22 06:19:01;;;;;;;0.73;0.63;;;;;;;9.58;84.00;96280.59;5132528;27;20423;-56
2022/10/22 06:21:31;;;;;;;1.60;1.60;;;;;;;9.91;82.57;96280.63;5132713;27;20426;-55
2022/10/22 06:24:00;;;;;;;0.60;0.40;;;;;;;10.22;80.90;96281.88;5132687;27;20431;-55
2022/10/22 06:26:28;;;;;;;1.00;1.00;;;;;;;11.02;76.33;96279.50;5133291;27;20457;-56
2022/10/22 06:28:57;;;;;;;0.40;0.30;;;;;;;10.57;76.85;96270.97;5132890;27;20438;-55
2022/10/22 06:31:27;;;;;;;0.60;0.30;;;;;;;9.97;79.54;96281.47;5132936;27;20757;-56
2022/10/22 06:33:57;;;;;;;0.60;0.47;;;;;;;10.10;79.29;96284.59;5133040;27;20480;-56
2022/10/22 06:36:25;;;;;;;1.17;1.07;;;;;;;9.31;83.32;96287.53;5133034;27;20422;-56
2022/10/22 06:38:54;;;;;;;0.70;0.67;;;;;;;9.23;86.65;96285.25;5132495;27;20486;-55
2022/10/22 06:41:24;;;;;;;1.37;1.27;;;;;;;9.07;88.78;96278.06;5132997;27;20447;-56
2022/10/22 06:43:57;;;;;;;0.40;0.27;;;;;;;9.74;85.07;96279.00;5132187;27;20524;-56
2022/10/22 06:46:26;;;;;;;0.50;0.50;;;;;;;9.72;84.70;96276.59;5133015;27;20430;-56
2022/10/22 06:48:58;;;;;;;0.40;0.30;;;;;;;10.05;81.95;96278.41;5132687;27;20884;-56
2022/10/22 06:51:27;;;;;;;2.70;0.33;;;;;;;9.48;83.74;96260.06;5132866;27;20409;-56
2022/10/22 06:53:56;;;;;;;1.10;1.10;;;;;;;9.70;84.99;96280.50;5132376;27;20473;-55
2022/10/22 06:56:27;;;;;;;3.37;3.17;;;;;;;9.68;85.41;96279.94;5131922;27;20437;-56
2022/10/22 06:58:56;;;;;;;0.70;0.70;;;;;;;9.80;85.81;96275.38;5132747;27;20781;-55
2022/10/22 07:01:27;;;;;;;1.10;1.03;;;;;;;10.43;82.86;96278.47;5132405;27;20803;-55
2022/10/22 07:03:57;;;;;;;0.90;0.60;;;;;;;11.00;83.58;96276.28;5132382;27;20968;-56
2022/10/22 07:06:27;;;;;;;0.77;0.77;;;;;;;11.48;78.95;96281.56;5131818;27;20441;-55
2022/10/22 07:08:56;;;;;;;0.70;0.70;;;;;;;12.09;75.31;96261.66;5132045;27;20442;-55
2022/10/22 07:11:27;;;;;;;11.20;1.80;;;;;;;11.92;73.01;96132.69;5132425;27;20482;-55
2022/10/22 07:13:56;;;;;;;2.03;1.50;;;;;;;13.80;71.54;96264.19;5131719;27;20910;-56
2022/10/22 07:16:25;;;;;;;1.00;0.80;;;;;;;13.77;65.67;96090.72;5132324;27;20426;-57
2022/10/22 07:19:00;;;;;;;2.00;1.37;;;;;;;14.99;65.20;96263.47;5132268;27;20468;-58
2022/10/22 07:21:30;;;;;;;8.53;2.60;;;;;;;15.04;65.46;96268.78;5132317;27;20441;-60
2022/10/22 07:23:59;;;;;;;2.10;2.00;;;;;;;15.38;63.41;96268.09;5132051;27;20422;-58
2022/10/22 07:26:31;;;;;;;23.43;2.10;;;;;;;15.97;61.45;96254.59;5132058;27;20438;-60
2022/10/22 07:29:00;;;;;;;1.00;0.90;;;;;;;16.70;60.08;96253.38;5132293;27;20925;-60
2022/10/22 07:31:28;;;;;;;1.63;1.53;;;;;;;16.93;58.01;96255.25;5132568;27;20482;-60
2022/10/22 07:33:57;;;;;;;6.17;0.80;;;;;;;16.48;57.37;96245.03;5134934;27;20556;-61
2022/10/22 07:36:27;;;;;;;1.73;1.43;;;;;;;16.05;58.70;96246.78;5132518;27;20453;-58
2022/10/22 07:38:57;;;;;;;0.90;0.90;;;;;;;16.75;57.04;96233.78;5132786;27;20434;-58
2022/10/22 07:41:26;;;;;;;7.23;1.70;;;;;;;15.62;58.38;96114.84;5132630;27;20813;-58
2022/10/22 07:43:55;;;;;;;2.30;1.33;;;;;;;16.50;57.47;96257.03;5132264;27;20438;-59
2022/10/22 07:46:23;;;;;;;0.70;0.60;;;;;;;15.86;58.43;96237.88;5132654;27;20429;-58
2022/10/22 07:48:52;;;;;;;1.17;1.07;;;;;;;16.01;58.14;96235.06;5132503;27;20430;-57
2022/10/22 07:51:21;;;;;;;1.50;1.10;;;;;;;16.36;57.29;96240.06;5132265;27;20440;-57
2022/10/22 07:53:51;;;;;;;3.60;1.83;;;;;;;16.69;57.20;96234.94;5132392;27;20466;-57
2022/10/22 07:56:22;;;;;;;5.00;2.40;;;;;;;16.42;56.91;96246.94;5132693;27;20463;-57
2022/10/22 07:58:50;;;;;;;3.43;1.57;;;;;;;16.42;57.06;96235.44;5132251;27;20432;-58
2022/10/22 08:01:19;;;;;;;1.13;1.03;;;;;;;17.56;55.78;96230.88;5132118;27;20501;-56
2022/10/22 08:03:47;;;;;;;1.73;1.63;;;;;;;17.60;55.17;96221.97;5132674;27;20435;-56
2022/10/22 08:06:16;;;;;;;1.80;0.97;;;;;;;18.99;52.41;96218.16;5132339;27;20433;-56
2022/10/22 08:08:45;;;;;;;0.70;0.70;;;;;;;18.91;50.72;96216.97;5132158;27;20946;-57
2022/10/22 08:11:15;;;;;;;2.30;1.23;;;;;;;18.48;51.53;96217.56;5132041;27;20431;-56
2022/10/22 08:13:44;;;;;;;1.50;1.40;;;;;;;19.10;50.24;96191.88;5131523;27;20472;-56
2022/10/22 08:16:13;;;;;;;7.17;2.20;;;;;;;19.51;49.27;96208.72;5131158;27;20510;-54
2022/10/22 08:18:42;;;;;;;1.27;1.17;;;;;;;19.85;48.36;96217.06;5132190;27;20424;-54
2022/10/22 08:21:11;;;;;;;2.10;0.60;;;;;;;21.03;46.81;96217.19;5132166;27;20440;-53
2022/10/22 08:23:39;;;;;;;6.50;1.30;;;;;;;20.71;47.23;96212.19;5131822;27;20960;-54
2022/10/22 08:26:07;;;;;;;1.10;1.10;;;;;;;20.95;45.75;96203.72;5130919;27;21012;-54
2022/10/22 08:28:37;;;;;;;4.77;1.27;;;;;;;21.22;45.35;96215.06;5132145;27;20797;-54
2022/10/22 08:31:07;;;;;;;0.70;0.70;;;;;;;21.55;45.63;96214.63;5135676;27;20433;-53
2022/10/22 08:33:35;;;;;;;1.40;1.27;;;;;;;22.60;42.94;96202.25;5135210;27;20556;-54
2022/10/22 08:36:05;;;;;;;7.83;2.23;;;;;;;22.03;43.00;96193.69;5135300;27;20932;-53
2022/10/22 08:38:34;;;;;;;1.40;1.30;;;;;;;21.89;42.98;96193.03;5135371;27;20430;-53
2022/10/22 08:41:09;;;;;;;0.70;0.60;;;;;;;22.41;42.05;96123.50;5135624;27;20784;-54
2022/10/22 08:44:03;;;;;;;1.87;1.00;;;;;;;22.49;42.99;96179.41;5135536;27;20430;-53
2022/10/22 08:46:55;;;;;;;0.70;0.50;;;;;;;22.17;42.72;96147.56;5135091;27;20442;-53
2022/10/22 08:49:27;;;;;;;1.10;1.10;;;;;;;21.58;42.83;96006.25;5134895;27;20442;-53
2022/10/22 08:51:57;;;;;;;1.40;1.30;;;;;;;22.62;40.98;96063.00;5134753;27;20429;-53
2022/10/22 08:54:42;;;;;;;0.70;0.70;;;;;;;23.07;42.24;96175.97;5134252;27;20475;-52
2022/10/22 08:57:26;;;;;;;1.53;1.27;;;;;;;23.78;40.99;96168.63;5135183;27;20449;-53
2022/10/22 09:00:04;;;;;;;4.10;0.80;;;;;;;24.92;38.60;96155.88;5134929;27;20458;-53
2022/10/22 09:02:43;;;;;;;1.10;0.80;;;;;;;23.77;38.73;96113.69;5134668;27;20434;-53
2022/10/22 09:05:28;;;;;;;0.97;0.87;;;;;;;24.07;39.49;96186.66;5134800;27;20644;-52
2022/10/22 09:07:57;;;;;;;1.07;1.07;;;;;;;24.19;38.66;96178.59;5134970;27;20806;-53
2022/10/22 09:10:30;;;;;;;0.70;0.70;;;;;;;25.25;37.94;96174.72;5134579;27;20437;-53
2022/10/22 09:12:58;;;;;;;0.60;0.60;;;;;;;25.14;38.50;96176.34;5134894;27;20431;-53
2022/10/22 09:15:30;;;;;;;0.77;0.77;;;;;;;25.53;37.85;96166.66;5134619;27;20474;-54
2022/10/22 09:18:10;;;;;;;1.47;0.70;;;;;;;26.18;36.37;96174.38;5134741;27;20427;-53
2022/10/22 09:20:45;;;;;;;1.33;1.23;;;;;;;25.63;37.49;96166.97;5134473;27;20423;-54
2022/10/22 09:23:24;;;;;;;0.47;0.43;;;;;;;26.20;36.68;96158.50;5134512;27;20441;-53
2022/10/22 09:25:54;;;;;;;0.90;0.90;;;;;;;26.51;35.94;96163.19;5134529;27;20470;-53
2022/10/22 09:28:22;;;;;;;8.73;1.00;;;;;;;26.67;35.97;96160.44;5134182;27;20431;-54
2022/10/22 09:30:52;;;;;;;0.87;0.87;;;;;;;26.26;35.46;96142.75;5134451;27;20427;-53
2022/10/22 09:33:24;;;;;;;1.53;0.90;;;;;;;26.44;35.64;96152.13;5134373;27;20434;-52
2022/10/22 09:35:55;;;;;;;2.03;1.70;;;;;;;25.93;35.47;96156.59;5134560;27;20831;-54
2022/10/22 09:38:26;;;;;;;0.60;0.50;;;;;;;24.71;37.34;96155.19;5133308;27;20423;-54
2022/10/22 09:40:57;;;;;;;0.83;0.83;;;;;;;24.47;37.89;96130.78;5133008;27;20428;-54
2022/10/22 09:43:25;;;;;;;0.60;0.60;;;;;;;25.55;36.92;96135.31;5133883;27;20988;-54
2022/10/22 09:45:58;;;;;;;0.60;0.50;;;;;;;25.09;36.73;96133.16;5134108;27;20411;-54
2022/10/22 09:48:30;;;;;;;1.40;1.30;;;;;;;24.50;37.75;96124.69;5133925;27;20439;-54
2022/10/22 09:51:10;;;;;;;1.73;0.67;;;;;;;24.81;37.81;96127.66;5134159;27;20853;-53
2022/10/22 09:53:42;;;;;;;1.30;0.80;;;;;;;24.75;37.93;96126.25;5133879;27;20504;-53
2022/10/22 09:56:21;;;;;;;1.23;1.10;;;;;;;24.87;37.96;96120.84;5133949;27;20546;-53
2022/10/22 09:58:51;;;;;;;1.50;1.40;;;;;;;23.17;39.27;96079.00;5134169;27;20419;-53
2022/10/22 10:01:24;;;;;;;1.10;1.07;;;;;;;24.41;38.13;96111.22;5133728;27;20427;-53
2022/10/22 10:03:53;;;;;;;2.53;1.70;;;;;;;25.67;37.00;96110.06;5133662;27;20434;-53
2022/10/22 10:06:23;;;;;;;0.87;0.87;;;;;;;25.34;37.31;96107.56;5133883;27;20427;-53
2022/10/22 10:08:51;;;;;;;1.13;0.93;;;;;;;25.77;36.59;96101.41;5133566;27;20467;-53
2022/10/22 10:11:28;;;;;;;0.57;0.50;;;;;;;25.85;36.11;96097.75;5133410;27;20426;-53
2022/10/22 10:14:08;;;;;;;1.30;1.20;;;;;;;25.99;35.73;96089.19;5133742;27;20427;-53
2022/10/22 10:16:58;;;;;;;0.73;0.73;;;;;;;26.33;36.15;96072.25;5133380;27;20434;-54
2022/10/22 10:19:43;;;;;;;0.40;0.30;;;;;;;28.15;32.76;96001.00;5133268;27;20423;-54
2022/10/22 10:22:27;;;;;;;0.87;0.87;;;;;;;27.18;34.69;96066.03;5133371;27;20803;-54
2022/10/22 10:25:17;;;;;;;0.80;0.80;;;;;;;27.64;34.00;96068.59;5132953;27;20483;-53
2022/10/22 10:27:54;;;;;;;0.83;0.63;;;;;;;28.12;33.42;96055.47;5132826;27;20431;-54
2022/10/22 10:30:24;;;;;;;0.73;0.60;;;;;;;28.22;34.44;96050.19;5132740;27;20438;-52
2022/10/22 10:33:10;;;;;;;1.00;0.97;;;;;;;29.58;31.95;96044.34;5132296;27;20928;-53
2022/10/22 10:35:46;;;;;;;1.10;0.90;;;;;;;28.90;32.61;96052.84;5132899;27;20478;-53
2022/10/22 10:38:32;;;;;;;1.20;0.80;;;;;;;28.98;32.44;96047.47;5132994;27;20991;-52
2022/10/22 10:41:08;;;;;;;1.10;0.93;;;;;;;29.13;32.72;96039.09;5132145;27;20938;-54
2022/10/22 10:43:46;;;;;;;1.00;1.00;;;;;;;28.67;34.05;96034.94;5133172;27;20441;-52
2022/10/22 10:46:22;;;;;;;0.83;0.60;;;;;;;28.29;33.23;96038.59;5132815;27;20446;-53
2022/10/22 10:48:55;;;;;;;0.90;0.90;;;;;;;28.44;33.20;96023.28;5133030;27;20426;-53
2022/10/22 10:51:35;;;;;;;0.60;0.60;;;;;;;28.86;31.87;96032.13;5132596;27;20427;-52
2022/10/22 10:54:16;;;;;;;1.30;0.90;;;;;;;28.01;33.29;95956.38;5132850;27;20434;-53
2022/10/22 10:56:49;;;;;;;1.17;0.87;;;;;;;28.22;33.87;96019.41;5132762;27;20480;-52
2022/10/22 10:59:23;;;;;;;0.70;0.63;;;;;;;29.40;32.60;96007.06;5132273;27;20938;-52
2022/10/22 11:02:31;;;;;;;0.63;0.53;;;;;;;29.80;32.15;96003.63;5133015;27;20438;-53
2022/10/22 11:05:28;;;;;;;0.73;0.73;;;;;;;30.04;30.77;95997.59;5130292;27;20961;-52
2022/10/22 11:08:01;;;;;;;3.97;0.70;;;;;;;29.61;30.84;95990.91;5112344;28;20430;-53
2022/10/22 11:10:36;;;;;;;0.43;0.43;;;;;;;30.43;31.36;95990.53;5111796;28;20435;-54
2022/10/22 11:13:11;;;;;;;1.63;0.97;;;;;;;28.90;31.02;95981.09;5112092;28;20434;-53
2022/10/22 11:15:41;;;;;;;0.50;0.50;;;;;;;28.44;32.17;95982.38;5112268;28;20474;-54
2022/10/22 11:18:18;;;;;;;4.53;1.30;;;;;;;28.59;31.68;95971.28;5112212;28;20424;-53
2022/10/22 11:20:55;;;;;;;0.87;0.50;;;;;;;28.85;31.16;95930.34;5117333;28;20824;-54
2022/10/22 11:23:30;;;;;;;0.97;0.97;;;;;;;29.20;30.92;95965.50;5132933;27;20429;-53
2022/10/22 11:26:01;;;;;;;2.00;1.00;;;;;;;29.47;30.92;95955.25;5132360;27;20474;-54
2022/10/22 11:28:33;;;;;;;1.10;0.60;;;;;;;29.32;30.32;95950.81;5132935;27;20422;-53
2022/10/22 11:31:07;;;;;;;0.50;0.40;;;;;;;29.60;31.07;95948.34;5133073;27;20431;-54
2022/10/22 11:33:43;;;;;;;0.70;0.67;;;;;;;28.72;31.23;95945.38;5132852;27;20547;-53
2022/10/22 11:36:14;;;;;;;0.73;0.73;;;;;;;29.27;30.65;95940.22;5132292;27;20465;-53
2022/10/22 11:38:42;;;;;;;0.50;0.50;;;;;;;30.56;29.32;95917.91;5132166;27;20427;-53
2022/10/22 11:41:13;;;;;;;0.47;0.47;;;;;;;31.07;28.51;95925.22;5132820;27;20838;-54
2022/10/22 11:44:05;;;;;;;1.10;0.53;;;;;;;28.97;29.59;95934.75;5132501;27;20426;-54
2022/10/22 11:46:45;;;;;;;0.60;0.60;;;;;;;28.99;30.72;95937.94;5132458;27;20426;-54
2022/10/22 11:49:24;;;;;;;0.50;0.50;;;;;;;29.09;30.88;95931.03;5132714;27;20890;-53
2022/10/22 11:52:21;;;;;;;1.10;1.10;;;;;;;29.43;29.65;95924.38;5132255;27;20429;-53
2022/10/22 11:54:54;;;;;;;0.47;0.43;;;;;;;30.80;28.30;95921.94;5132394;27;20441;-53
2022/10/22 11:57:28;;;;;;;0.80;0.80;;;;;;;29.95;29.06;95910.47;5132362;27;20458;-53
2022/10/22 12:00:00;;;;;;;0.70;0.70;;;;;;;30.17;29.21;95912.16;5132450;27;20467;-52